Time;durP1;ratioP1;P1;durP2;ratioP2;P2;SDS_P1;SDS_P2;PMS_P1;PMS_P2;Temp;Humidity;BMP_temperature;BMP_pressure;BME280_temperature;BME280_humidity;BME280_pressure;Samples;Min_cycle;Max_cycle;Signal;HPM_P1;HPM_P2
2021/05/04 00:00:00;;;;;;;4.87;4.30;;;14.50;35.30;;;;;;5110114;28;20627;-53
2021/05/04 00:02:27;;;;;;;5.90;5.07;;;14.60;35.30;;;;;;5110630;28;20637;-53
2021/05/04 00:04:54;;;;;;;3.70;3.40;;;14.60;35.20;;;;;;5110701;28;20708;-53
2021/05/04 00:07:21;;;;;;;4.03;3.73;;;14.60;35.50;;;;;;5110292;28;21206;-54
2021/05/04 00:09:48;;;;;;;3.77;3.47;;;14.50;35.10;;;;;;5110894;28;21017;-54
2021/05/04 00:12:15;;;;;;;3.30;3.03;;;14.50;35.00;;;;;;5110098;28;21220;-54
2021/05/04 00:14:43;;;;;;;3.47;3.10;;;14.50;35.10;;;;;;5110680;28;21161;-53
2021/05/04 00:17:10;;;;;;;3.57;3.20;;;14.40;35.20;;;;;;5109822;28;20647;-54
2021/05/04 00:19:39;;;;;;;3.27;2.53;;;14.40;35.30;;;;;;5108542;28;20623;-54
2021/05/04 00:22:06;;;;;;;3.60;3.30;;;14.40;35.50;;;;;;5109802;28;20648;-54
2021/05/04 00:24:39;;;;;;;4.00;3.70;;;14.30;35.60;;;;;;5108952;28;20651;-53
2021/05/04 00:27:06;;;;;;;3.50;3.20;;;14.30;35.80;;;;;;5089435;22;20692;-54
2021/05/04 00:29:33;;;;;;;4.03;3.73;;;14.30;35.90;;;;;;5039999;28;20725;-53
2021/05/04 00:32:00;;;;;;;3.60;3.30;;;14.20;35.90;;;;;;5030844;28;20631;-53
2021/05/04 00:34:28;;;;;;;4.23;3.93;;;14.20;36.10;;;;;;5012815;28;20763;-53
2021/05/04 00:36:55;;;;;;;4.90;4.37;;;14.20;36.10;;;;;;5011258;28;20678;-53
2021/05/04 00:39:26;;;;;;;5.30;3.30;;;14.10;36.10;;;;;;5010932;28;20628;-53
2021/05/04 00:41:52;;;;;;;5.00;3.60;;;14.20;36.20;;;;;;5019606;28;20626;-53
2021/05/04 00:44:19;;;;;;;3.33;2.80;;;14.20;36.20;;;;;;5031035;28;20627;-54
2021/05/04 00:46:46;;;;;;;4.07;3.67;;;14.10;36.10;;;;;;5030733;28;20659;-53
2021/05/04 00:49:14;;;;;;;4.07;3.40;;;14.10;36.20;;;;;;5030962;28;20988;-53
2021/05/04 00:51:44;;;;;;;4.57;4.10;;;14.10;36.00;;;;;;5033080;28;20626;-55
2021/05/04 00:54:11;;;;;;;8.60;3.60;;;14.10;36.00;;;;;;5035310;28;20642;-55
2021/05/04 00:56:38;;;;;;;4.37;3.20;;;14.10;36.00;;;;;;5034841;28;20658;-52
2021/05/04 00:59:05;;;;;;;3.87;3.47;;;14.10;36.10;;;;;;5034741;28;20631;-52
2021/05/04 01:01:32;;;;;;;3.33;3.07;;;14.10;36.30;;;;;;5033919;28;21228;-52
2021/05/04 01:03:59;;;;;;;3.77;2.83;;;14.10;35.70;;;;;;5034900;28;20640;-55
2021/05/04 01:06:27;;;;;;;2.90;2.70;;;14.10;35.60;;;;;;5033854;28;20672;-54
2021/05/04 01:08:54;;;;;;;5.93;3.43;;;14.00;35.50;;;;;;5034174;28;20663;-52
2021/05/04 01:11:20;;;;;;;3.10;2.90;;;14.00;35.70;;;;;;5034047;28;20639;-52
2021/05/04 01:13:48;;;;;;;2.43;2.23;;;14.00;35.90;;;;;;5034422;28;20638;-53
2021/05/04 01:16:15;;;;;;;3.00;2.70;;;13.90;36.00;;;;;;5034673;28;21239;-53
2021/05/04 01:18:41;;;;;;;2.60;2.40;;;13.90;36.20;;;;;;5033953;28;20642;-53
2021/05/04 01:21:09;;;;;;;3.90;3.50;;;13.80;36.30;;;;;;5033917;28;20618;-53
2021/05/04 01:23:36;;;;;;;3.27;3.03;;;13.80;36.50;;;;;;5033818;28;20683;-51
2021/05/04 01:26:03;;;;;;;3.83;2.50;;;13.70;36.70;;;;;;5033695;28;21085;-52
2021/05/04 01:28:30;;;;;;;2.80;2.40;;;13.70;36.60;;;;;;5016606;28;20685;-51
2021/05/04 01:30:57;;;;;;;3.20;2.90;;;13.70;36.60;;;;;;5033969;28;20638;-51
2021/05/04 01:33:24;;;;;;;4.77;3.17;;;13.70;36.60;;;;;;5031901;28;20627;-52
2021/05/04 01:35:51;;;;;;;3.67;3.30;;;13.70;36.70;;;;;;5014195;28;20662;-51
2021/05/04 01:38:18;;;;;;;3.63;3.33;;;13.70;36.60;;;;;;5013666;28;20681;-52
2021/05/04 01:40:45;;;;;;;4.60;3.10;;;13.60;36.60;;;;;;5014087;28;21050;-53
2021/05/04 01:43:12;;;;;;;5.63;3.40;;;13.60;36.70;;;;;;5032030;28;20717;-51
2021/05/04 01:45:39;;;;;;;3.73;2.97;;;13.60;36.90;;;;;;5033788;28;20631;-52
2021/05/04 01:48:06;;;;;;;3.70;2.93;;;13.60;36.90;;;;;;5033629;28;20655;-52
2021/05/04 01:50:33;;;;;;;2.73;2.43;;;13.60;36.80;;;;;;5033712;28;21070;-52
2021/05/04 01:52:59;;;;;;;4.70;2.40;;;13.60;36.80;;;;;;5033624;28;21226;-52
2021/05/04 01:55:27;;;;;;;3.70;2.70;;;13.60;36.80;;;;;;5033752;28;20685;-52
2021/05/04 01:57:54;;;;;;;3.47;2.90;;;13.60;36.90;;;;;;5033636;28;20650;-52
2021/05/04 02:00:21;;;;;;;3.33;3.00;;;13.50;36.90;;;;;;5033317;28;20635;-53
2021/05/04 02:02:48;;;;;;;3.60;2.63;;;13.60;37.00;;;;;;5021715;28;21301;-53
2021/05/04 02:05:15;;;;;;;4.23;3.13;;;13.60;37.00;;;;;;5013288;28;20652;-52
2021/05/04 02:07:42;;;;;;;3.80;2.87;;;13.60;37.00;;;;;;5013515;28;21072;-52
2021/05/04 02:10:10;;;;;;;2.33;2.07;;;13.60;37.00;;;;;;5013779;28;21169;-53
2021/05/04 02:12:38;;;;;;;3.30;2.93;;;13.60;37.00;;;;;;5026441;28;20633;-52
2021/05/04 02:15:06;;;;;;;2.33;2.13;;;13.60;37.20;;;;;;5033218;28;20726;-52
2021/05/04 02:17:33;;;;;;;7.13;3.07;;;13.60;37.20;;;;;;5032630;28;20647;-53
2021/05/04 02:20:00;;;;;;;2.90;2.70;;;13.60;37.50;;;;;;5033031;28;21198;-52
2021/05/04 02:22:27;;;;;;;4.10;2.63;;;13.50;37.50;;;;;;5032731;28;20664;-52
2021/05/04 02:24:54;;;;;;;2.70;2.50;;;13.50;37.60;;;;;;5031359;28;20662;-53
2021/05/04 02:27:21;;;;;;;3.80;2.70;;;13.50;37.70;;;;;;5032124;28;20676;-53
2021/05/04 02:29:49;;;;;;;3.17;2.50;;;13.50;37.80;;;;;;5031617;28;21368;-53
2021/05/04 02:32:16;;;;;;;3.07;2.87;;;13.40;37.80;;;;;;5022507;28;20645;-53
2021/05/04 02:34:42;;;;;;;2.40;2.30;;;13.40;37.90;;;;;;5032340;28;21263;-52
2021/05/04 02:37:09;;;;;;;4.53;3.67;;;13.30;38.00;;;;;;5032482;28;21194;-52
2021/05/04 02:39:36;;;;;;;6.80;3.60;;;13.30;38.10;;;;;;5031242;28;20634;-52
2021/05/04 02:42:04;;;;;;;2.90;2.70;;;13.30;38.40;;;;;;5032284;28;20983;-52
2021/05/04 02:44:30;;;;;;;3.30;3.00;;;13.20;38.60;;;;;;5032266;28;20639;-53
2021/05/04 02:46:58;;;;;;;3.67;3.27;;;13.20;38.90;;;;;;5032480;28;20671;-53
2021/05/04 02:49:25;;;;;;;4.00;3.20;;;13.20;39.20;;;;;;5031996;28;20641;-53
2021/05/04 02:51:52;;;;;;;3.40;3.20;;;13.10;39.50;;;;;;5032057;28;20760;-53
2021/05/04 02:54:19;;;;;;;3.17;2.97;;;13.10;39.60;;;;;;5032327;28;20610;-54
2021/05/04 02:56:46;;;;;;;5.23;2.93;;;13.00;39.60;;;;;;5031841;28;20709;-54
2021/05/04 02:59:13;;;;;;;2.93;2.73;;;13.00;39.80;;;;;;5031501;28;20634;-54
2021/05/04 03:01:40;;;;;;;2.60;2.40;;;12.90;39.90;;;;;;5032025;28;20966;-54
2021/05/04 03:04:07;;;;;;;3.20;2.97;;;12.80;40.20;;;;;;5030866;28;20663;-54
2021/05/04 03:06:34;;;;;;;3.47;3.17;;;12.70;40.30;;;;;;5030709;28;21302;-54
2021/05/04 03:09:01;;;;;;;5.93;2.53;;;12.70;40.50;;;;;;5030540;28;21380;-54
2021/05/04 03:11:29;;;;;;;3.07;2.87;;;12.70;40.60;;;;;;5031764;28;20657;-54
2021/05/04 03:13:56;;;;;;;3.37;3.07;;;12.70;40.70;;;;;;5031134;28;20635;-54
2021/05/04 03:16:23;;;;;;;3.27;2.13;;;12.70;40.70;;;;;;5031983;28;21110;-54
2021/05/04 03:18:50;;;;;;;4.90;3.90;;;12.70;40.80;;;;;;5030810;28;20627;-54
2021/05/04 03:21:18;;;;;;;3.60;3.30;;;12.70;40.80;;;;;;5030657;28;20968;-54
2021/05/04 03:23:46;;;;;;;3.53;3.23;;;12.70;40.70;;;;;;5011864;28;20627;-54
2021/05/04 03:26:14;;;;;;;4.50;3.13;;;12.70;40.90;;;;;;5013901;28;20671;-54
2021/05/04 03:28:41;;;;;;;7.17;3.70;;;12.70;41.00;;;;;;5031226;28;20630;-54
2021/05/04 03:31:08;;;;;;;3.20;3.00;;;12.60;41.10;;;;;;5030249;28;20630;-54
2021/05/04 03:33:35;;;;;;;2.97;2.77;;;12.60;41.20;;;;;;5031437;28;20638;-53
2021/05/04 03:36:02;;;;;;;2.33;2.13;;;12.50;41.30;;;;;;5031314;28;20654;-53
2021/05/04 03:38:29;;;;;;;3.53;3.23;;;12.50;41.30;;;;;;5031161;28;20627;-53
2021/05/04 03:40:56;;;;;;;4.20;3.57;;;12.50;41.40;;;;;;5031796;28;20623;-52
2021/05/04 03:43:23;;;;;;;5.23;3.57;;;12.50;41.60;;;;;;5031185;28;20639;-53
2021/05/04 03:45:50;;;;;;;3.23;2.93;;;12.50;41.50;;;;;;5031075;28;20670;-52
2021/05/04 03:48:17;;;;;;;3.30;3.00;;;12.50;41.50;;;;;;5030759;28;20638;-51
2021/05/04 03:50:44;;;;;;;4.60;3.47;;;12.50;41.70;;;;;;5031196;28;20626;-52
2021/05/04 03:53:11;;;;;;;5.60;4.40;;;12.50;41.80;;;;;;5030769;28;20631;-54
2021/05/04 03:55:39;;;;;;;2.93;2.73;;;12.50;41.70;;;;;;5017003;28;20670;-51
2021/05/04 03:58:06;;;;;;;3.00;2.40;;;12.50;41.70;;;;;;5011080;28;20707;-51
2021/05/04 04:00:33;;;;;;;6.60;4.10;;;12.50;41.80;;;;;;5030614;28;21290;-51
2021/05/04 04:03:00;;;;;;;4.30;3.90;;;12.40;41.90;;;;;;5029528;28;20627;-51
2021/05/04 04:05:27;;;;;;;3.57;3.27;;;12.50;42.00;;;;;;5031094;28;20706;-51
2021/05/04 04:07:54;;;;;;;6.57;3.23;;;12.40;42.00;;;;;;5030950;28;20664;-51
2021/05/04 04:10:21;;;;;;;5.70;3.60;;;12.40;42.60;;;;;;5031005;28;20973;-51
2021/05/04 04:12:49;;;;;;;3.63;2.90;;;12.30;42.20;;;;;;5031165;28;20619;-51
2021/05/04 04:15:15;;;;;;;6.70;2.63;;;12.30;42.40;;;;;;5030834;28;21266;-52
2021/05/04 04:17:42;;;;;;;5.30;3.17;;;12.30;42.50;;;;;;5031066;28;20659;-52
2021/05/04 04:20:09;;;;;;;7.00;3.60;;;12.30;42.60;;;;;;5030815;28;20685;-51
2021/05/04 04:22:38;;;;;;;4.03;3.07;;;12.30;42.60;;;;;;5028909;28;21262;-52
2021/05/04 04:25:06;;;;;;;2.80;2.60;;;12.30;42.70;;;;;;5030994;28;20623;-51
2021/05/04 04:27:33;;;;;;;3.00;2.23;;;12.20;42.70;;;;;;5034570;28;20669;-51
2021/05/04 04:30:01;;;;;;;3.10;2.87;;;12.20;42.90;;;;;;5035191;28;20700;-51
2021/05/04 04:32:28;;;;;;;3.13;2.93;;;12.20;42.90;;;;;;5034792;28;20626;-51
2021/05/04 04:34:56;;;;;;;3.10;2.70;;;12.20;42.90;;;;;;5034644;28;20750;-51
2021/05/04 04:37:22;;;;;;;3.00;2.80;;;12.20;43.00;;;;;;5034652;28;21209;-52
2021/05/04 04:39:50;;;;;;;6.67;3.03;;;12.20;43.00;;;;;;5033765;28;21122;-51
2021/05/04 04:42:17;;;;;;;6.00;3.80;;;12.20;43.00;;;;;;5034422;28;20710;-51
2021/05/04 04:44:44;;;;;;;2.30;2.10;;;12.30;43.00;;;;;;5033716;28;20625;-51
2021/05/04 04:47:12;;;;;;;8.60;2.37;;;12.30;42.90;;;;;;5033657;28;20722;-51
2021/05/04 04:49:39;;;;;;;3.53;3.23;;;12.30;42.80;;;;;;5033927;28;20692;-52
2021/05/04 04:52:06;;;;;;;4.10;3.80;;;12.30;42.90;;;;;;5023869;28;20623;-51
2021/05/04 04:54:34;;;;;;;3.37;2.90;;;12.30;43.00;;;;;;5034913;28;20622;-52
2021/05/04 04:57:01;;;;;;;3.03;2.70;;;12.30;42.90;;;;;;5034302;28;21187;-51
2021/05/04 04:59:28;;;;;;;3.20;3.00;;;12.30;42.90;;;;;;5034028;28;20666;-51
2021/05/04 05:01:55;;;;;;;3.63;2.73;;;12.30;43.00;;;;;;5033787;28;20809;-52
2021/05/04 05:04:23;;;;;;;3.70;3.10;;;12.30;43.00;;;;;;5034268;28;20661;-53
2021/05/04 05:06:50;;;;;;;4.43;3.33;;;12.40;43.10;;;;;;5033756;28;20663;-52
2021/05/04 05:09:17;;;;;;;3.73;2.60;;;12.40;43.00;;;;;;5033883;28;21014;-54
2021/05/04 05:11:44;;;;;;;3.20;2.90;;;12.40;43.00;;;;;;5031560;28;21475;-52
2021/05/04 05:14:11;;;;;;;3.47;3.17;;;12.40;43.10;;;;;;5033758;28;20737;-52
2021/05/04 05:16:38;;;;;;;2.93;2.70;;;12.40;43.10;;;;;;5033139;28;20647;-52
2021/05/04 05:19:04;;;;;;;3.53;3.23;;;12.40;43.10;;;;;;5026665;28;20991;-51
2021/05/04 05:21:32;;;;;;;3.30;2.70;;;12.40;43.20;;;;;;5014010;28;20637;-55
2021/05/04 05:24:00;;;;;;;3.50;3.20;;;12.40;43.20;;;;;;5032993;28;20686;-52
2021/05/04 05:26:26;;;;;;;3.10;2.80;;;12.40;43.20;;;;;;5033074;28;20660;-53
2021/05/04 05:28:53;;;;;;;5.60;3.00;;;12.50;43.20;;;;;;5033148;28;20697;-52
2021/05/04 05:31:21;;;;;;;3.30;2.87;;;12.50;43.20;;;;;;5022358;28;20628;-52
2021/05/04 05:33:48;;;;;;;3.03;2.83;;;12.40;43.30;;;;;;5031743;28;20634;-53
2021/05/04 05:36:14;;;;;;;4.17;3.80;;;12.40;43.30;;;;;;5033089;28;20658;-51
2021/05/04 05:38:42;;;;;;;9.60;8.60;;;12.40;43.30;;;;;;5033179;28;20638;-52
2021/05/04 05:41:09;;;;;;;4.83;4.47;;;12.50;43.40;;;;;;5033463;28;21163;-52
2021/05/04 05:43:36;;;;;;;4.67;4.27;;;12.40;43.30;;;;;;5032926;28;20700;-52
2021/05/04 05:46:03;;;;;;;4.20;3.80;;;12.50;43.50;;;;;;5031281;28;20667;-52
2021/05/04 05:48:30;;;;;;;6.53;5.20;;;12.40;43.50;;;;;;5032727;28;20631;-54
2021/05/04 05:50:57;;;;;;;4.00;3.60;;;12.50;43.60;;;;;;5033262;28;20629;-54
2021/05/04 05:53:24;;;;;;;3.97;3.67;;;12.50;43.50;;;;;;5032252;28;20648;-53
2021/05/04 05:55:51;;;;;;;4.17;3.77;;;12.60;43.50;;;;;;5033328;28;20629;-54
2021/05/04 05:58:18;;;;;;;4.20;3.80;;;12.60;43.30;;;;;;5032769;28;20631;-53
2021/05/04 06:00:45;;;;;;;2.90;2.70;;;12.60;43.50;;;;;;5032908;28;20650;-54
2021/05/04 06:03:12;;;;;;;5.93;3.90;;;12.60;43.30;;;;;;5033006;28;20639;-53
2021/05/04 06:05:39;;;;;;;3.90;2.60;;;12.60;43.30;;;;;;5036204;28;21053;-53
2021/05/04 06:08:06;;;;;;;4.13;3.83;;;12.60;43.20;;;;;;5039718;28;20716;-54
2021/05/04 06:10:33;;;;;;;3.40;3.10;;;12.60;43.40;;;;;;5037367;28;20682;-53
2021/05/04 06:13:02;;;;;;;4.33;3.00;;;12.70;43.30;;;;;;5038574;28;20915;-54
2021/05/04 06:15:29;;;;;;;4.00;3.70;;;12.70;43.20;;;;;;5032700;28;21182;-53
2021/05/04 06:17:56;;;;;;;2.70;2.50;;;12.70;43.10;;;;;;5031101;28;20662;-52
2021/05/04 06:20:23;;;;;;;4.43;3.00;;;12.70;43.30;;;;;;5032509;28;21023;-52
2021/05/04 06:22:50;;;;;;;3.40;3.10;;;12.80;43.40;;;;;;5031705;28;20630;-53
2021/05/04 06:25:17;;;;;;;3.53;3.20;;;12.80;43.40;;;;;;5032844;28;20649;-52
2021/05/04 06:27:44;;;;;;;5.10;2.67;;;12.80;43.00;;;;;;5053774;22;20708;-53
2021/05/04 06:30:13;;;;;;;3.50;3.20;;;12.80;43.20;;;;;;5051515;28;20736;-52
2021/05/04 06:32:40;;;;;;;3.80;3.30;;;12.80;43.30;;;;;;5050621;28;20731;-53
2021/05/04 06:35:08;;;;;;;3.50;2.70;;;12.90;43.20;;;;;;5054704;28;21027;-52
2021/05/04 06:37:37;;;;;;;4.13;3.83;;;13.00;42.90;;;;;;5058413;28;20722;-53
2021/05/04 06:40:04;;;;;;;3.50;3.20;;;13.00;43.00;;;;;;5051001;28;20622;-54
2021/05/04 06:42:31;;;;;;;2.87;2.67;;;13.10;42.60;;;;;;5044987;28;20696;-53
2021/05/04 06:44:58;;;;;;;3.23;2.90;;;13.10;42.20;;;;;;5030248;28;20669;-53
2021/05/04 06:47:26;;;;;;;2.63;2.43;;;13.20;42.20;;;;;;5030812;28;20705;-53
2021/05/04 06:49:53;;;;;;;2.37;2.17;;;13.20;42.00;;;;;;5034488;28;20622;-53
2021/05/04 06:52:20;;;;;;;2.27;2.07;;;13.30;41.30;;;;;;5048527;28;21247;-53
2021/05/04 06:54:46;;;;;;;6.10;2.47;;;13.30;41.00;;;;;;5050560;28;20725;-53
2021/05/04 06:57:13;;;;;;;3.10;2.80;;;13.30;40.30;;;;;;5050255;28;20995;-53
2021/05/04 06:59:40;;;;;;;2.73;1.83;;;13.40;40.00;;;;;;5038535;28;20688;-53
2021/05/04 07:02:07;;;;;;;2.50;1.70;;;13.50;39.90;;;;;;5031103;28;20643;-54
2021/05/04 07:04:35;;;;;;;4.13;1.80;;;13.50;39.40;;;;;;5030855;28;20885;-54
2021/05/04 07:07:02;;;;;;;5.27;2.87;;;13.60;38.30;;;;;;5030576;28;21230;-53
2021/05/04 07:09:29;;;;;;;3.50;2.17;;;13.60;37.30;;;;;;5029054;28;21239;-52
2021/05/04 07:11:56;;;;;;;4.80;1.80;;;13.80;35.60;;;;;;5030218;28;20635;-54
2021/05/04 07:14:23;;;;;;;4.83;1.87;;;13.90;35.10;;;;;;5030084;28;20635;-53
2021/05/04 07:16:50;;;;;;;7.97;3.03;;;14.00;34.40;;;;;;5029768;28;20701;-53
2021/05/04 07:19:17;;;;;;;8.10;2.30;;;14.00;34.40;;;;;;5023795;28;20628;-54
2021/05/04 07:21:45;;;;;;;7.97;2.00;;;14.10;34.70;;;;;;5010779;28;20759;-53
2021/05/04 07:24:12;;;;;;;4.17;1.70;;;14.20;34.80;;;;;;5011046;28;20635;-53
2021/05/04 07:26:39;;;;;;;3.53;2.17;;;14.20;35.00;;;;;;5010172;28;20714;-53
2021/05/04 07:29:06;;;;;;;2.50;1.90;;;14.20;35.30;;;;;;5027835;28;20627;-53
2021/05/04 07:31:34;;;;;;;23.83;2.03;;;14.30;35.50;;;;;;5017000;28;20638;-53
2021/05/04 07:34:01;;;;;;;14.33;2.77;;;14.30;36.10;;;;;;5010541;28;21380;-53
2021/05/04 07:36:29;;;;;;;8.83;3.03;;;14.20;36.80;;;;;;5010675;28;20617;-54
2021/05/04 07:38:57;;;;;;;15.70;3.87;;;14.10;37.50;;;;;;5028916;28;20951;-54
2021/05/04 07:41:24;;;;;;;11.77;2.30;;;14.10;37.80;;;;;;5016542;28;20628;-54
2021/05/04 07:43:51;;;;;;;13.50;2.50;;;14.00;38.20;;;;;;5009573;28;20628;-55
2021/05/04 07:46:17;;;;;;;11.73;2.37;;;14.00;38.60;;;;;;5009652;28;20659;-54
2021/05/04 07:48:44;;;;;;;4.63;2.10;;;13.90;38.80;;;;;;5025763;28;20709;-53
2021/05/04 07:51:11;;;;;;;4.10;2.07;;;14.00;39.10;;;;;;5026997;28;20635;-53
2021/05/04 07:53:38;;;;;;;7.67;2.47;;;14.00;39.30;;;;;;5010191;28;20644;-53
2021/05/04 07:56:06;;;;;;;5.33;2.47;;;13.90;39.50;;;;;;5016568;28;20701;-54
2021/05/04 07:58:32;;;;;;;3.90;1.90;;;13.80;40.10;;;;;;5038686;28;20658;-52
2021/05/04 08:00:59;;;;;;;14.97;3.10;;;13.80;40.30;;;;;;5045818;28;20643;-53
2021/05/04 08:03:27;;;;;;;7.40;2.40;;;13.80;40.30;;;;;;5040534;28;20681;-53
2021/05/04 08:05:54;;;;;;;4.90;4.30;;;13.80;40.80;;;;;;5029165;28;21120;-52
2021/05/04 08:08:21;;;;;;;1.37;1.10;;;13.70;40.80;;;;;;5023905;28;20682;-53
2021/05/04 08:10:48;;;;;;;5.47;2.77;;;13.70;41.30;;;;;;5032473;28;20652;-53
2021/05/04 08:13:18;;;;;;;6.20;1.70;;;13.60;41.30;;;;;;5027736;28;20638;-53
2021/05/04 08:15:45;;;;;;;2.60;1.70;;;13.60;41.60;;;;;;5029298;28;20734;-53
2021/05/04 08:18:14;;;;;;;3.43;1.43;;;13.60;42.40;;;;;;5030582;28;20662;-53
2021/05/04 08:20:46;;;;;;;2.60;1.97;;;13.60;42.10;;;;;;5029880;28;20627;-53
2021/05/04 08:23:13;;;;;;;9.67;2.10;;;13.60;42.60;;;;;;5028957;28;20663;-55
2021/05/04 08:25:40;;;;;;;5.40;1.87;;;13.40;43.50;;;;;;5035119;28;20626;-54
2021/05/04 08:28:07;;;;;;;3.73;1.57;;;13.30;44.50;;;;;;5025874;28;20748;-54
2021/05/04 08:30:35;;;;;;;1.63;1.43;;;13.30;44.90;;;;;;5025789;28;20697;-53
2021/05/04 08:33:02;;;;;;;2.83;1.67;;;13.20;45.00;;;;;;5028487;28;20625;-53
2021/05/04 08:35:29;;;;;;;6.03;1.80;;;13.20;45.30;;;;;;5028641;28;20709;-53
2021/05/04 08:37:56;;;;;;;2.00;1.30;;;13.20;45.40;;;;;;5035753;28;20645;-52
2021/05/04 08:40:23;;;;;;;3.83;1.03;;;13.20;45.50;;;;;;5030121;28;20632;-52
2021/05/04 08:42:49;;;;;;;1.70;1.27;;;13.30;45.40;;;;;;5040248;28;20617;-52
2021/05/04 08:45:16;;;;;;;3.60;1.60;;;13.30;45.30;;;;;;5034030;28;20677;-53
2021/05/04 08:47:44;;;;;;;2.20;1.00;;;13.30;45.20;;;;;;5030126;28;21230;-53
2021/05/04 08:50:13;;;;;;;2.60;1.53;;;13.30;45.30;;;;;;5009610;28;20640;-52
2021/05/04 08:52:40;;;;;;;3.60;1.50;;;13.40;45.20;;;;;;5016596;28;20619;-54
2021/05/04 08:55:08;;;;;;;3.93;1.97;;;13.40;45.10;;;;;;5026077;28;20677;-55
2021/05/04 08:57:36;;;;;;;5.43;1.73;;;13.50;45.00;;;;;;5024152;28;21247;-54
2021/05/04 09:00:05;;;;;;;3.07;1.77;;;13.50;44.80;;;;;;5030385;28;20635;-54
2021/05/04 09:02:36;;;;;;;12.13;3.10;;;13.60;45.00;;;;;;5045423;28;20695;-54
2021/05/04 09:05:17;;;;;;;4.43;1.87;;;13.60;45.00;;;;;;5041259;28;20952;-54
2021/05/04 09:07:44;;;;;;;2.40;1.60;;;13.50;45.40;;;;;;5014407;28;20709;-54
2021/05/04 09:10:21;;;;;;;1.83;1.40;;;13.50;45.60;;;;;;5027306;28;20622;-52
2021/05/04 09:12:55;;;;;;;1.10;1.00;;;13.60;45.80;;;;;;5032127;28;20627;-53
2021/05/04 09:21:33;;;;;;;2.17;1.30;;;13.50;46.30;;;;;;5011561;28;20685;-53
2021/05/04 09:24:17;;;;;;;1.50;1.40;;;13.50;46.30;;;;;;5013172;28;21216;-54
2021/05/04 09:26:44;;;;;;;2.00;1.40;;;13.60;46.50;;;;;;5013008;28;20794;-53
2021/05/04 09:29:10;;;;;;;1.30;1.20;;;13.50;47.30;;;;;;5020873;28;21202;-53
2021/05/04 09:31:38;;;;;;;2.70;1.27;;;13.50;47.90;;;;;;5032282;28;20615;-54
2021/05/04 09:34:09;;;;;;;4.20;1.93;;;13.50;47.80;;;;;;5031637;28;20634;-53
2021/05/04 09:36:41;;;;;;;4.03;1.70;;;13.40;47.90;;;;;;5032121;28;20982;-53
2021/05/04 09:39:09;;;;;;;1.97;1.70;;;13.40;48.40;;;;;;5032486;28;20696;-53
2021/05/04 09:41:35;;;;;;;2.83;1.63;;;13.40;48.60;;;;;;5016252;28;20984;-53
2021/05/04 09:44:02;;;;;;;2.83;1.50;;;13.40;48.70;;;;;;5012823;28;20682;-53
2021/05/04 09:46:45;;;;;;;2.20;1.20;;;13.30;48.90;;;;;;5022841;28;20696;-54
2021/05/04 09:49:28;;;;;;;2.17;1.57;;;13.30;49.50;;;;;;5032386;28;21182;-53
2021/05/04 09:52:10;;;;;;;4.60;2.13;;;13.30;49.90;;;;;;5032228;28;20645;-53
2021/05/04 09:54:37;;;;;;;1.77;1.60;;;13.10;50.30;;;;;;5032061;28;20691;-53
2021/05/04 09:57:04;;;;;;;7.50;1.83;;;13.10;50.70;;;;;;5032327;28;21293;-53
2021/05/04 09:59:46;;;;;;;1.77;1.10;;;13.10;50.90;;;;;;5040647;28;20978;-54
2021/05/04 10:02:13;;;;;;;1.50;1.40;;;13.00;51.00;;;;;;5040922;28;20618;-55
2021/05/04 10:04:39;;;;;;;2.03;1.10;;;13.10;51.50;;;;;;5031496;28;20634;-53
2021/05/04 10:07:07;;;;;;;1.33;1.07;;;13.10;51.50;;;;;;5016157;28;20728;-54
2021/05/04 10:09:34;;;;;;;2.00;1.20;;;13.10;51.50;;;;;;5010904;28;20727;-52
2021/05/04 10:12:01;;;;;;;2.60;1.40;;;13.20;51.70;;;;;;5012059;28;20636;-54
2021/05/04 10:14:32;;;;;;;4.00;1.93;;;13.20;52.00;;;;;;5017176;28;20628;-54
2021/05/04 10:16:59;;;;;;;2.13;1.70;;;13.10;52.60;;;;;;5031983;28;20647;-54
2021/05/04 10:19:26;;;;;;;2.50;1.40;;;13.10;52.60;;;;;;5031955;28;20645;-52
2021/05/04 10:21:53;;;;;;;2.03;1.00;;;13.00;53.10;;;;;;5031546;28;20634;-53
2021/05/04 10:24:20;;;;;;;5.17;1.53;;;13.00;53.30;;;;;;5032147;28;21237;-52
2021/05/04 10:26:47;;;;;;;11.70;2.03;;;13.10;53.60;;;;;;5031175;28;20655;-54
2021/05/04 10:29:14;;;;;;;3.37;1.70;;;13.20;53.70;;;;;;5030119;28;20643;-54
2021/05/04 10:31:44;;;;;;;5.87;2.33;;;13.10;53.90;;;;;;5030257;28;20677;-54
2021/05/04 10:34:30;;;;;;;3.33;1.60;;;13.10;54.50;;;;;;5031820;28;20657;-54
2021/05/04 10:36:58;;;;;;;3.47;1.53;;;12.90;55.20;;;;;;5029522;28;20697;-53
2021/05/04 10:39:39;;;;;;;5.17;2.37;;;12.80;55.80;;;;;;5028197;28;20639;-53
2021/05/04 10:42:06;;;;;;;1.70;1.60;;;12.90;56.40;;;;;;5030172;28;20627;-53
2021/05/04 10:45:07;;;;;;;2.10;1.90;;;12.90;56.40;;;;;;5030782;28;20688;-54
2021/05/04 10:47:50;;;;;;;2.50;1.63;;;13.00;56.90;;;;;;5022117;28;20700;-54
2021/05/04 10:50:22;;;;;;;2.10;1.17;;;12.90;57.40;;;;;;5024539;28;21155;-52
2021/05/04 10:52:59;;;;;;;3.17;1.77;;;12.90;57.60;;;;;;5034398;28;20688;-53
2021/05/04 10:55:42;;;;;;;8.77;1.67;;;13.00;58.00;;;;;;5051444;28;20642;-54
2021/05/04 10:58:15;;;;;;;4.63;1.80;;;13.10;57.70;;;;;;5042105;28;20990;-54
2021/05/04 11:00:52;;;;;;;3.20;2.47;;;13.20;57.70;;;;;;5013915;28;21272;-53
2021/05/04 11:03:44;;;;;;;1.40;1.30;;;13.30;57.90;;;;;;5030418;28;20676;-54
2021/05/04 11:06:11;;;;;;;2.43;1.60;;;13.20;57.90;;;;;;5028358;28;20714;-54
2021/05/04 11:09:18;;;;;;;1.77;1.60;;;13.10;58.20;;;;;;5029222;28;20666;-54
2021/05/04 11:11:50;;;;;;;5.13;1.87;;;13.10;58.40;;;;;;5034888;28;20663;-54
2021/05/04 11:14:25;;;;;;;3.10;1.70;;;13.10;58.60;;;;;;5030431;28;20689;-54
2021/05/04 11:17:09;;;;;;;2.20;1.20;;;13.10;58.60;;;;;;5033609;28;20641;-54
2021/05/04 11:19:36;;;;;;;10.83;2.70;;;13.10;58.80;;;;;;5034532;28;20629;-54
2021/05/04 11:22:08;;;;;;;1.97;1.80;;;13.10;59.10;;;;;;5030164;28;20624;-55
2021/05/04 11:24:40;;;;;;;7.37;1.70;;;13.10;59.20;;;;;;5024032;28;20643;-55
2021/05/04 11:27:35;;;;;;;8.27;1.87;;;13.10;59.40;;;;;;5021189;28;20694;-53
2021/05/04 11:30:03;;;;;;;6.00;2.20;;;13.10;59.30;;;;;;4982295;28;20677;-54
2021/05/04 11:32:41;;;;;;;2.30;1.47;;;13.10;59.20;;;;;;5029435;28;20627;-54
2021/05/04 11:35:08;;;;;;;1.57;1.47;;;13.20;59.00;;;;;;5026909;28;21199;-54
2021/05/04 11:37:48;;;;;;;3.90;1.23;;;13.30;58.60;;;;;;5020999;28;20644;-55
2021/05/04 11:40:20;;;;;;;1.77;1.53;;;13.30;58.60;;;;;;5022146;28;20614;-53
2021/05/04 11:42:49;;;;;;;4.30;1.40;;;13.30;58.80;;;;;;5024642;28;20618;-55
2021/05/04 11:45:17;;;;;;;1.83;1.60;;;13.20;59.00;;;;;;5021515;28;20666;-54
2021/05/04 11:47:45;;;;;;;4.90;1.80;;;13.20;59.10;;;;;;5025666;28;20754;-54
2021/05/04 11:50:14;;;;;;;8.20;1.67;;;13.30;59.30;;;;;;5028457;28;20627;-54
2021/05/04 11:52:41;;;;;;;1.70;1.60;;;13.20;59.30;;;;;;5025328;28;20670;-53
2021/05/04 11:55:11;;;;;;;1.87;1.70;;;13.20;59.70;;;;;;5023269;28;20631;-52
2021/05/04 11:57:38;;;;;;;3.27;1.70;;;13.30;59.70;;;;;;5022024;28;21215;-54
2021/05/04 12:00:07;;;;;;;3.50;2.10;;;13.20;59.50;;;;;;5020916;28;20650;-54
2021/05/04 12:02:34;;;;;;;2.10;1.10;;;13.30;59.50;;;;;;5025739;28;20990;-54
2021/05/04 12:05:01;;;;;;;2.10;1.10;;;13.30;59.50;;;;;;5020809;28;20639;-55
2021/05/04 12:07:40;;;;;;;4.43;1.40;;;13.30;59.40;;;;;;5026372;28;21306;-53
2021/05/04 12:10:24;;;;;;;6.53;1.57;;;13.30;59.40;;;;;;5030479;28;20660;-54
2021/05/04 12:12:52;;;;;;;3.70;1.73;;;13.30;59.10;;;;;;5029751;28;20630;-54
2021/05/04 12:15:20;;;;;;;2.10;1.63;;;13.30;59.10;;;;;;5028404;28;20646;-54
2021/05/04 12:18:01;;;;;;;1.40;1.30;;;13.40;59.00;;;;;;5029267;28;20654;-53
2021/05/04 12:20:31;;;;;;;6.50;1.80;;;13.40;58.70;;;;;;5020893;28;21037;-53
2021/05/04 12:23:00;;;;;;;1.10;1.00;;;13.40;58.60;;;;;;5024333;28;20681;-54
2021/05/04 12:25:39;;;;;;;3.40;2.53;;;13.40;58.90;;;;;;5019340;28;20626;-53
2021/05/04 12:28:07;;;;;;;1.97;1.23;;;13.40;58.80;;;;;;5052094;22;20709;-55
2021/05/04 12:30:35;;;;;;;3.77;1.50;;;13.50;58.90;;;;;;5030022;28;20641;-53
2021/05/04 12:33:03;;;;;;;1.60;1.50;;;13.50;58.90;;;;;;5030412;28;20631;-54
2021/05/04 12:35:32;;;;;;;4.43;1.73;;;13.60;58.60;;;;;;5030553;28;21179;-54
2021/05/04 12:38:06;;;;;;;3.30;1.10;;;13.60;58.50;;;;;;5030764;28;20647;-53
2021/05/04 12:40:33;;;;;;;1.80;1.70;;;13.60;58.60;;;;;;5030403;28;20636;-53
2021/05/04 12:43:17;;;;;;;1.87;0.90;;;13.60;58.60;;;;;;5030035;28;21217;-53
2021/05/04 12:46:13;;;;;;;3.30;1.97;;;13.60;58.80;;;;;;5029839;28;20623;-54
2021/05/04 12:48:40;;;;;;;4.70;1.90;;;13.60;58.90;;;;;;5011227;28;20725;-55
2021/05/04 12:51:08;;;;;;;1.97;1.33;;;13.60;59.10;;;;;;5012175;28;20673;-53
2021/05/04 12:53:36;;;;;;;3.83;1.23;;;13.60;59.20;;;;;;5019436;28;20638;-54
2021/05/04 12:56:08;;;;;;;2.00;1.67;;;13.60;59.50;;;;;;5031371;28;20627;-53
2021/05/04 12:59:12;;;;;;;3.03;1.43;;;13.50;59.90;;;;;;5032862;28;20662;-54